createdAt,value
2018-06-15T00:00:24.553Z,101268.72
2018-06-15T00:02:58.882Z,101258.72
2018-06-15T00:05:27.809Z,101256.01
2018-06-15T00:07:56.744Z,101260.34
2018-06-15T00:10:25.653Z,101258.76
2018-06-15T00:12:54.573Z,101255.71
2018-06-15T00:15:23.499Z,101257.37
2018-06-15T00:17:52.406Z,101254.32
2018-06-15T00:20:21.313Z,101254.03
2018-06-15T00:22:50.225Z,101253.77
2018-06-15T00:25:19.166Z,101264.28
2018-06-15T00:27:48.066Z,101260.53
2018-06-15T00:30:17.005Z,101261.31
2018-06-15T00:32:45.924Z,101257.78
2018-06-15T00:35:14.866Z,101258.37
2018-06-15T00:37:43.766Z,101261.38
2018-06-15T00:40:12.704Z,101256.52
2018-06-15T00:42:41.613Z,101257.04
2018-06-15T00:45:10.724Z,101263.77
2018-06-15T00:47:39.648Z,101259.20
2018-06-15T00:50:08.527Z,101251.31
2018-06-15T00:52:37.470Z,101249.14
2018-06-15T00:55:06.483Z,101252.16
2018-06-15T00:57:48.406Z,101252.96
2018-06-15T01:00:17.825Z,101251.86
2018-06-15T01:02:47.001Z,101250.53
2018-06-15T01:05:15.942Z,101243.73
2018-06-15T01:07:44.840Z,101240.44
2018-06-15T01:10:13.790Z,101242.70
2018-06-15T01:12:42.729Z,101244.88
2018-06-15T01:15:11.619Z,101242.41
2018-06-15T01:17:40.541Z,101238.56
2018-06-15T01:20:09.454Z,101243.16
2018-06-15T01:22:38.636Z,101235.52
2018-06-15T01:25:07.540Z,101236.33
2018-06-15T01:27:36.501Z,101238.23
2018-06-15T01:30:06.200Z,101237.49
2018-06-15T01:32:35.101Z,101233.86
2018-06-15T01:35:04.039Z,101228.72
2018-06-15T01:37:32.957Z,101237.81
2018-06-15T01:40:01.898Z,101235.38
2018-06-15T01:42:30.865Z,101233.28
2018-06-15T01:44:59.755Z,101235.77
2018-06-15T01:47:28.654Z,101231.38
2018-06-15T01:49:57.627Z,101232.22
2018-06-15T01:52:26.516Z,101230.56
2018-06-15T01:54:55.472Z,101228.36
2018-06-15T01:57:24.407Z,101229.23
2018-06-15T01:59:53.323Z,101227.30
2018-06-15T02:02:22.255Z,101218.48
2018-06-15T02:04:51.144Z,101220.40
2018-06-15T02:07:20.090Z,101221.20
2018-06-15T02:09:48.975Z,101218.55
2018-06-15T02:12:17.942Z,101221.02
2018-06-15T02:14:46.836Z,101224.80
2018-06-15T02:17:15.754Z,101222.08
2018-06-15T02:19:44.704Z,101223.19
2018-06-15T02:22:13.651Z,101224.77
2018-06-15T02:24:42.654Z,101226.38
2018-06-15T02:27:11.609Z,101223.95
2018-06-15T02:29:40.522Z,101226.16
2018-06-15T02:32:09.462Z,101222.53
2018-06-15T02:34:38.400Z,101221.43
2018-06-15T02:37:07.321Z,101217.91
2018-06-15T02:39:36.232Z,101220.33
2018-06-15T02:42:05.202Z,101225.95
2018-06-15T02:44:34.148Z,101222.95
2018-06-15T02:47:03.041Z,101232.42
2018-06-15T02:49:31.943Z,101226.77
2018-06-15T02:52:00.843Z,101218.54
2018-06-15T02:54:29.742Z,101227.20
2018-06-15T02:56:58.684Z,101230.44
2018-06-15T02:59:27.618Z,101229.38
2018-06-15T03:01:56.871Z,101228.86
2018-06-15T03:04:25.798Z,101231.02
2018-06-15T03:06:54.744Z,101231.80
2018-06-15T03:09:23.825Z,101233.67
2018-06-15T03:11:52.740Z,101241.56
2018-06-15T03:14:21.919Z,101236.97
2018-06-15T03:16:51.328Z,101238.33
2018-06-15T03:19:20.342Z,101238.81
2018-06-15T03:21:49.260Z,101239.14
2018-06-15T03:24:18.156Z,101245.09
2018-06-15T03:26:47.051Z,101242.96
2018-06-15T03:29:16.066Z,101253.80
2018-06-15T03:31:44.989Z,101257.80
2018-06-15T03:34:13.940Z,101255.08
2018-06-15T03:36:42.839Z,101255.88
2018-06-15T03:39:12.732Z,101254.27
2018-06-15T03:41:41.676Z,101255.12
2018-06-15T03:44:10.586Z,101253.47
2018-06-15T03:46:39.539Z,101257.88
2018-06-15T03:49:08.458Z,101257.28
2018-06-15T03:51:37.375Z,101261.76
2018-06-15T03:54:06.379Z,101267.41
2018-06-15T03:56:35.283Z,101265.24
2018-06-15T03:59:04.206Z,101269.61
2018-06-15T04:01:33.137Z,101275.13
2018-06-15T04:04:02.047Z,101269.21
2018-06-15T04:06:30.973Z,101257.58
2018-06-15T04:08:59.916Z,101256.98
2018-06-15T04:11:28.827Z,101253.47
2018-06-15T04:13:58.152Z,101261.88
2018-06-15T04:16:27.334Z,101260.47
2018-06-15T04:18:56.534Z,101272.29
2018-06-15T04:21:25.732Z,101277.05
2018-06-15T04:23:55.686Z,101285.45
2018-06-15T04:26:24.602Z,101294.36
2018-06-15T04:28:53.519Z,101288.02
2018-06-15T04:31:22.492Z,101283.20
2018-06-15T04:33:51.856Z,101282.70
2018-06-15T04:36:20.764Z,101282.19
2018-06-15T04:38:49.697Z,101278.14
2018-06-15T04:41:18.617Z,101286.55
2018-06-15T04:43:48.058Z,101290.11
2018-06-15T04:46:16.935Z,101294.78
2018-06-15T04:48:45.854Z,101296.69
2018-06-15T04:51:14.763Z,101296.17
2018-06-15T04:53:43.651Z,101304.33
2018-06-15T04:56:12.571Z,101291.11
2018-06-15T04:58:41.470Z,101296.32
2018-06-15T05:01:10.424Z,101288.17
2018-06-15T05:03:39.334Z,101284.64
2018-06-15T05:06:08.228Z,101285.59
2018-06-15T05:08:37.172Z,101285.88
2018-06-15T05:11:06.075Z,101288.96
2018-06-15T05:13:34.998Z,101280.73
2018-06-15T05:16:03.966Z,101278.69
2018-06-15T05:18:32.867Z,101287.87
2018-06-15T05:21:01.786Z,101293.61
2018-06-15T05:23:30.732Z,101293.67
2018-06-15T05:25:59.669Z,101290.25
2018-06-15T05:28:28.604Z,101297.34
2018-06-15T05:30:57.487Z,101291.45
2018-06-15T05:33:26.955Z,101295.34
2018-06-15T05:35:55.942Z,101300.23
2018-06-15T05:38:25.026Z,101305.38
2018-06-15T05:40:53.977Z,101300.78
2018-06-15T05:43:22.895Z,101305.19
2018-06-15T05:45:51.856Z,101295.77
2018-06-15T05:48:20.763Z,101303.80
2018-06-15T05:50:49.718Z,101305.55
2018-06-15T05:53:19.190Z,101299.03
2018-06-15T05:55:48.233Z,101302.63
2018-06-15T05:58:17.125Z,101305.97
2018-06-15T06:00:46.091Z,101312.28
2018-06-15T06:03:19.963Z,101311.44
2018-06-15T06:05:49.487Z,101312.28
2018-06-15T06:08:19.929Z,101309.07
2018-06-15T06:10:49.417Z,101307.68
2018-06-15T06:13:18.525Z,101314.22
2018-06-15T06:15:47.635Z,101310.20
2018-06-15T06:18:16.608Z,101314.28
2018-06-15T06:20:45.545Z,101325.88
2018-06-15T06:23:14.439Z,101332.20
2018-06-15T06:25:43.360Z,101334.98
2018-06-15T06:28:12.292Z,101335.05
2018-06-15T06:30:41.209Z,101331.77
2018-06-15T06:33:10.176Z,101339.36
2018-06-15T06:35:39.090Z,101341.98
2018-06-15T06:38:08.044Z,101344.80
2018-06-15T06:40:36.973Z,101338.25
2018-06-15T06:43:05.908Z,101344.86
2018-06-15T06:45:34.818Z,101347.58
2018-06-15T06:48:03.751Z,101343.53
2018-06-15T06:50:32.675Z,101340.58
2018-06-15T06:53:01.558Z,101342.45
2018-06-15T06:55:30.481Z,101345.13
2018-06-15T06:57:59.413Z,101345.96
2018-06-15T07:00:28.334Z,101344.66
2018-06-15T07:02:57.564Z,101341.65
2018-06-15T07:05:26.478Z,101343.59
2018-06-15T07:07:55.395Z,101343.62
2018-06-15T07:10:24.408Z,101348.02
2018-06-15T07:12:53.341Z,101351.59
2018-06-15T07:15:22.244Z,101348.58
2018-06-15T07:17:51.170Z,101349.41
2018-06-15T07:20:20.100Z,101351.56
2018-06-15T07:22:49.025Z,101349.41
2018-06-15T07:25:18.094Z,101352.43
2018-06-15T07:27:47.202Z,101345.45
2018-06-15T07:30:16.118Z,101348.52
2018-06-15T07:32:45.058Z,101348.63
2018-06-15T07:35:13.969Z,101346.19
2018-06-15T07:37:42.886Z,101346.88
2018-06-15T07:40:11.796Z,101348.36
2018-06-15T07:42:40.716Z,101335.38
2018-06-15T07:45:09.637Z,101339.94
2018-06-15T07:47:38.545Z,101335.30
2018-06-15T07:50:07.432Z,101331.30
2018-06-15T07:52:36.341Z,101331.13
2018-06-15T07:55:05.289Z,101335.27
2018-06-15T07:57:34.194Z,101331.64
2018-06-15T08:00:03.101Z,101337.11
2018-06-15T08:02:32.041Z,101336.32
2018-06-15T08:05:00.951Z,101333.44
2018-06-15T08:07:29.848Z,101333.78
2018-06-15T08:09:58.776Z,101333.06
2018-06-15T08:12:27.676Z,101335.45
2018-06-15T08:14:56.601Z,101335.16
2018-06-15T08:17:25.517Z,101341.41
2018-06-15T08:19:54.436Z,101342.70
2018-06-15T08:22:23.348Z,101340.84
2018-06-15T08:24:52.289Z,101346.89
2018-06-15T08:27:21.214Z,101340.91
2018-06-15T08:29:50.110Z,101341.75
2018-06-15T08:32:19.025Z,101341.22
2018-06-15T08:34:48.232Z,101341.23
2018-06-15T08:37:17.469Z,101340.95
2018-06-15T08:39:46.909Z,101342.06
2018-06-15T08:42:16.112Z,101341.86
2018-06-15T08:44:45.009Z,101337.25
2018-06-15T08:47:13.951Z,101333.53
2018-06-15T08:49:42.854Z,101340.04
2018-06-15T08:52:11.789Z,101343.84
2018-06-15T08:54:40.700Z,101336.56
2018-06-15T08:57:09.616Z,101336.27
2018-06-15T08:59:38.558Z,101337.95
2018-06-15T09:02:07.462Z,101333.62
2018-06-15T09:04:36.372Z,101334.75
2018-06-15T09:07:05.527Z,101329.70
2018-06-15T09:09:34.425Z,101329.97
2018-06-15T09:12:03.362Z,101327.25
2018-06-15T09:14:32.287Z,101330.31
2018-06-15T09:17:01.195Z,101329.78
2018-06-15T09:19:30.094Z,101327.67
2018-06-15T09:21:59.016Z,101322.47
2018-06-15T09:24:27.934Z,101326.56
2018-06-15T09:26:56.860Z,101326.92
2018-06-15T09:29:25.998Z,101324.48
2018-06-15T09:31:54.913Z,101324.23
2018-06-15T09:34:23.859Z,101326.14
2018-06-15T09:36:52.781Z,101326.42
2018-06-15T09:39:21.922Z,101326.93
2018-06-15T09:41:50.842Z,101327.97
2018-06-15T09:44:19.762Z,101329.05
2018-06-15T09:46:48.694Z,101322.19
2018-06-15T09:49:17.584Z,101331.73
2018-06-15T09:51:46.494Z,101325.52
2018-06-15T09:54:15.437Z,101328.58
2018-06-15T09:56:44.349Z,101322.57
2018-06-15T09:59:13.293Z,101320.91
2018-06-15T10:01:42.195Z,101321.20
2018-06-15T10:04:11.092Z,101321.23
2018-06-15T10:06:39.993Z,101323.98
2018-06-15T10:09:08.901Z,101322.67
2018-06-15T10:11:37.973Z,101322.66
2018-06-15T10:14:06.900Z,101325.12
2018-06-15T10:16:35.813Z,101326.20
2018-06-15T10:19:04.730Z,101326.48
2018-06-15T10:21:33.647Z,101326.27
2018-06-15T10:24:02.568Z,101318.09
2018-06-15T10:26:31.465Z,101320.56
2018-06-15T10:29:00.396Z,101314.81
2018-06-15T10:31:29.317Z,101319.45
2018-06-15T10:33:58.218Z,101321.63
2018-06-15T10:36:27.165Z,101322.73
2018-06-15T10:38:56.073Z,101326.30
2018-06-15T10:41:25.000Z,101325.19
2018-06-15T10:43:53.927Z,101320.83
2018-06-15T10:46:22.810Z,101317.30
2018-06-15T10:48:51.738Z,101313.47
2018-06-15T10:51:20.646Z,101314.30
2018-06-15T10:53:49.534Z,101315.14
2018-06-15T10:56:18.461Z,101320.91
2018-06-15T10:58:47.367Z,101309.69
2018-06-15T11:01:16.316Z,101306.15
2018-06-15T11:03:45.221Z,101311.61
2018-06-15T11:06:14.157Z,101312.73
2018-06-15T11:08:46.708Z,101309.19
2018-06-15T11:11:15.977Z,101304.80
2018-06-15T11:13:44.920Z,101303.67
2018-06-15T11:16:13.822Z,101302.28
2018-06-15T11:18:42.725Z,101289.14
2018-06-15T11:21:11.651Z,101294.78
2018-06-15T11:23:40.558Z,101289.39
2018-06-15T11:26:09.478Z,101293.02
2018-06-15T11:28:38.398Z,101290.56
2018-06-15T11:31:07.304Z,101293.02
2018-06-15T11:33:36.240Z,101291.09
2018-06-15T11:36:05.194Z,101289.73
2018-06-15T11:38:34.145Z,101288.11
2018-06-15T11:41:03.123Z,101291.94
2018-06-15T11:43:31.952Z,101290.03
2018-06-15T11:46:00.859Z,101285.64
2018-06-15T11:48:29.750Z,101280.70
2018-06-15T11:50:58.678Z,101276.86
2018-06-15T11:53:27.640Z,101274.31
2018-06-15T11:55:56.588Z,101264.21
2018-06-15T11:58:25.474Z,101262.06
2018-06-15T12:00:54.402Z,101265.67
2018-06-15T12:03:24.333Z,101267.30
2018-06-15T12:05:53.413Z,101262.37
2018-06-15T12:08:25.487Z,101255.23
2018-06-15T12:10:57.621Z,101253.33
2018-06-15T12:13:26.520Z,101247.25
2018-06-15T12:15:55.426Z,101246.62
2018-06-15T12:18:24.339Z,101239.92
2018-06-15T12:20:53.268Z,101240.77
2018-06-15T12:23:22.226Z,101244.95
2018-06-15T12:25:51.142Z,101242.70
2018-06-15T12:28:20.058Z,101249.80
2018-06-15T12:30:48.997Z,101246.81
2018-06-15T12:33:17.919Z,101236.59
2018-06-15T12:35:46.951Z,101237.78
2018-06-15T12:38:16.240Z,101237.11
2018-06-15T12:40:45.278Z,101232.18
2018-06-15T12:43:14.285Z,101237.58
2018-06-15T12:45:43.222Z,101236.25
2018-06-15T12:48:12.134Z,101234.27
2018-06-15T12:50:41.051Z,101241.81
2018-06-15T12:53:10.114Z,101240.11
2018-06-15T12:55:39.192Z,101239.23
2018-06-15T12:58:08.134Z,101240.89
2018-06-15T13:00:37.062Z,101237.72
2018-06-15T13:03:06.001Z,101239.03
2018-06-15T13:05:34.938Z,101238.45
2018-06-15T13:08:03.883Z,101244.80
2018-06-15T13:10:32.767Z,101244.73
2018-06-15T13:13:01.698Z,101245.59
2018-06-15T13:15:30.632Z,101241.73
2018-06-15T13:17:59.604Z,101238.95
2018-06-15T13:20:28.470Z,101230.80
2018-06-15T13:22:57.359Z,101232.94
2018-06-15T13:25:26.280Z,101233.53
2018-06-15T13:27:55.190Z,101230.50
2018-06-15T13:30:24.114Z,101237.91
2018-06-15T13:32:53.054Z,101229.19
2018-06-15T13:35:22.164Z,101228.14
2018-06-15T13:37:51.124Z,101225.66
2018-06-15T13:40:20.028Z,101228.77
2018-06-15T13:42:48.983Z,101231.16
2018-06-15T13:45:17.905Z,101230.19
2018-06-15T13:47:46.949Z,101223.20
2018-06-15T13:50:15.897Z,101232.75
2018-06-15T13:52:44.802Z,101224.64
2018-06-15T13:55:13.798Z,101230.42
2018-06-15T13:57:42.729Z,101226.36
2018-06-15T14:00:11.679Z,101221.73
2018-06-15T14:02:40.798Z,101225.34
2018-06-15T14:05:09.698Z,101217.19
2018-06-15T14:07:38.635Z,101214.14
2018-06-15T14:10:07.577Z,101212.23
2018-06-15T14:12:36.483Z,101216.14
2018-06-15T14:15:05.643Z,101214.77
2018-06-15T14:17:34.549Z,101211.05
2018-06-15T14:20:03.474Z,101207.14
2018-06-15T14:22:32.716Z,101206.54
2018-06-15T14:25:02.434Z,101207.04
2018-06-15T14:27:31.736Z,101206.47
2018-06-15T14:30:00.646Z,101207.08
2018-06-15T14:32:29.554Z,101200.20
2018-06-15T14:34:58.484Z,101203.86
2018-06-15T14:37:27.420Z,101200.80
2018-06-15T14:39:56.340Z,101198.42
2018-06-15T14:42:25.247Z,101202.45
2018-06-15T14:44:54.204Z,101204.12
2018-06-15T14:47:23.128Z,101198.86
2018-06-15T14:49:52.049Z,101201.75
2018-06-15T14:52:20.977Z,101207.46
2018-06-15T14:54:49.878Z,101196.78
2018-06-15T14:57:18.790Z,101196.18
2018-06-15T14:59:47.717Z,101189.19
2018-06-15T15:02:16.592Z,101193.88
2018-06-15T15:04:48.761Z,101188.38
2018-06-15T15:07:17.652Z,101194.88
2018-06-15T15:09:46.609Z,101189.13
2018-06-15T15:12:15.524Z,101195.22
2018-06-15T15:14:44.419Z,101185.42
2018-06-15T15:17:13.356Z,101187.84
2018-06-15T15:19:42.357Z,101184.28
2018-06-15T15:22:11.308Z,101187.88
2018-06-15T15:24:44.098Z,101177.08
2018-06-15T15:27:13.082Z,101174.38
2018-06-15T15:29:42.304Z,101176.06
2018-06-15T15:32:11.240Z,101177.27
2018-06-15T15:34:40.161Z,101174.66
2018-06-15T15:37:09.120Z,101171.00
2018-06-15T15:39:38.030Z,101166.52
2018-06-15T15:42:07.024Z,101167.89
2018-06-15T15:44:35.924Z,101164.78
2018-06-15T15:47:05.028Z,101162.79
2018-06-15T15:49:33.957Z,101163.59
2018-06-15T15:52:02.880Z,101160.70
2018-06-15T15:54:31.828Z,101157.38
2018-06-15T15:57:00.723Z,101156.12
2018-06-15T15:59:29.626Z,101151.55
2018-06-15T16:01:58.646Z,101151.77
2018-06-15T16:04:27.545Z,101156.45
2018-06-15T16:06:56.514Z,101157.33
2018-06-15T16:09:25.404Z,101152.98
2018-06-15T16:11:54.654Z,101147.72
2018-06-15T16:14:23.807Z,101149.83
2018-06-15T16:16:52.718Z,101152.07
2018-06-15T16:19:22.114Z,101146.20
2018-06-15T16:21:51.031Z,101149.36
2018-06-15T16:24:19.989Z,101153.78
2018-06-15T16:26:48.940Z,101156.97
2018-06-15T16:29:17.875Z,101144.52
2018-06-15T16:31:46.814Z,101147.77
2018-06-15T16:34:15.703Z,101156.23
2018-06-15T16:36:44.625Z,101155.87
2018-06-15T16:39:13.548Z,101163.88
2018-06-15T16:41:42.479Z,101160.42
2018-06-15T16:44:11.428Z,101160.55
2018-06-15T16:46:40.346Z,101159.84
2018-06-15T16:49:09.247Z,101153.19
2018-06-15T16:51:38.161Z,101151.92
2018-06-15T16:54:07.082Z,101157.05
2018-06-15T16:56:36.013Z,101155.33
2018-06-15T16:59:04.926Z,101158.34
2018-06-15T17:01:33.829Z,101160.52
2018-06-15T17:04:02.723Z,101161.48
2018-06-15T17:06:31.631Z,101159.27
2018-06-15T17:09:00.651Z,101156.20
2018-06-15T17:11:29.582Z,101156.70
2018-06-15T17:13:58.498Z,101155.73
2018-06-15T17:16:27.428Z,101163.39
2018-06-15T17:18:56.319Z,101161.22
2018-06-15T17:21:25.260Z,101167.66
2018-06-15T17:23:54.189Z,101172.14
2018-06-15T17:26:23.243Z,101165.30
2018-06-15T17:28:52.668Z,101165.87
2018-06-15T17:31:21.647Z,101159.52
2018-06-15T17:33:50.546Z,101164.30
2018-06-15T17:36:19.452Z,101159.81
2018-06-15T17:38:48.363Z,101165.44
2018-06-15T17:41:17.304Z,101166.20
2018-06-15T17:43:46.218Z,101167.09
2018-06-15T17:46:15.143Z,101165.69
2018-06-15T17:48:44.046Z,101171.00
2018-06-15T17:51:13.028Z,101168.80
2018-06-15T17:53:41.905Z,101173.16
2018-06-15T17:56:10.829Z,101169.81
2018-06-15T17:58:39.723Z,101172.52
2018-06-15T18:01:08.669Z,101171.18
2018-06-15T18:03:37.566Z,101167.93
2018-06-15T18:06:06.494Z,101173.80
2018-06-15T18:08:35.437Z,101170.52
2018-06-15T18:11:04.312Z,101174.61
2018-06-15T18:13:33.249Z,101175.41
2018-06-15T18:16:02.144Z,101173.27
2018-06-15T18:18:31.074Z,101180.39
2018-06-15T18:21:00.100Z,101174.69
2018-06-15T18:23:32.418Z,101181.58
2018-06-15T18:26:01.383Z,101179.94
2018-06-15T18:28:30.300Z,101183.27
2018-06-15T18:30:59.202Z,101183.36
2018-06-15T18:33:31.860Z,101177.33
2018-06-15T18:36:00.750Z,101175.61
2018-06-15T18:38:29.693Z,101175.66
2018-06-15T18:40:58.620Z,101169.16
2018-06-15T18:43:27.515Z,101166.46
2018-06-15T18:45:56.422Z,101174.71
2018-06-15T18:48:25.339Z,101176.58
2018-06-15T18:50:54.242Z,101171.97
2018-06-15T18:53:23.178Z,101172.31
2018-06-15T18:55:52.054Z,101166.80
2018-06-15T18:58:20.979Z,101168.39
2018-06-15T19:00:49.877Z,101168.98
2018-06-15T19:03:18.814Z,101169.77
2018-06-15T19:05:47.723Z,101167.88
2018-06-15T19:08:16.621Z,101168.44
2018-06-15T19:10:45.559Z,101168.73
2018-06-15T19:13:14.455Z,101170.13
2018-06-15T19:15:43.381Z,101169.39
2018-06-15T19:18:12.302Z,101166.09
2018-06-15T19:20:41.206Z,101168.34
2018-06-15T19:23:10.130Z,101170.80
2018-06-15T19:25:39.029Z,101162.10
2018-06-15T19:28:07.966Z,101165.78
2018-06-15T19:30:36.861Z,101162.02
2018-06-15T19:33:05.818Z,101163.23
2018-06-15T19:35:34.736Z,101162.50
2018-06-15T19:38:03.638Z,101157.70
2018-06-15T19:40:32.566Z,101163.75
2018-06-15T19:43:01.467Z,101163.78
2018-06-15T19:45:30.370Z,101165.23
2018-06-15T19:47:59.255Z,101168.00
2018-06-15T19:50:28.188Z,101172.38
2018-06-15T19:52:57.102Z,101174.29
2018-06-15T19:55:26.022Z,101171.05
2018-06-15T19:57:54.962Z,101170.53
2018-06-15T20:00:23.905Z,101175.46
2018-06-15T20:02:52.840Z,101169.16
2018-06-15T20:05:21.800Z,101165.91
2018-06-15T20:07:50.679Z,101168.90
2018-06-15T20:10:19.626Z,101174.40
2018-06-15T20:12:48.558Z,101174.39
2018-06-15T20:15:17.444Z,101167.86
2018-06-15T20:17:46.370Z,101165.12
2018-06-15T20:20:15.267Z,101166.77
2018-06-15T20:22:44.190Z,101167.58
2018-06-15T20:25:13.278Z,101174.41
2018-06-15T20:27:42.199Z,101172.23
2018-06-15T20:30:11.123Z,101176.33
2018-06-15T20:32:43.723Z,101168.66
2018-06-15T20:35:12.668Z,101174.65
2018-06-15T20:37:41.575Z,101175.20
2018-06-15T20:40:10.474Z,101179.02
2018-06-15T20:42:39.406Z,101172.70
2018-06-15T20:45:08.346Z,101175.17
2018-06-15T20:47:37.323Z,101165.05
2018-06-15T20:50:06.155Z,101170.78
2018-06-15T20:52:35.084Z,101166.11
2018-06-15T20:55:03.984Z,101167.19
2018-06-15T20:57:32.882Z,101166.38
2018-06-15T21:00:01.858Z,101165.52
2018-06-15T21:02:30.751Z,101156.23
2018-06-15T21:04:59.658Z,101158.15
2018-06-15T21:07:28.578Z,101160.28
2018-06-15T21:09:57.698Z,101155.37
2018-06-15T21:12:27.335Z,101158.84
2018-06-15T21:14:56.260Z,101159.91
2018-06-15T21:17:25.160Z,101157.47
2018-06-15T21:19:54.055Z,101158.81
2018-06-15T21:22:22.961Z,101161.25
2018-06-15T21:24:51.997Z,101156.91
2018-06-15T21:27:20.924Z,101163.70
2018-06-15T21:29:50.045Z,101159.03
2018-06-15T21:32:19.159Z,101159.02
2018-06-15T21:34:48.071Z,101158.45
2018-06-15T21:37:16.955Z,101155.97
2018-06-15T21:39:45.885Z,101156.53
2018-06-15T21:42:14.822Z,101159.25
2018-06-15T21:44:43.719Z,101155.37
2018-06-15T21:47:12.653Z,101154.27
2018-06-15T21:49:41.884Z,101154.56
2018-06-15T21:52:10.809Z,101159.74
2018-06-15T21:54:39.719Z,101157.02
2018-06-15T21:57:08.772Z,101157.86
2018-06-15T21:59:37.703Z,101160.27
2018-06-15T22:02:06.888Z,101158.61
2018-06-15T22:04:35.823Z,101157.15
2018-06-15T22:07:04.723Z,101156.36
2018-06-15T22:09:33.648Z,101158.80
2018-06-15T22:12:02.573Z,101155.77
2018-06-15T22:14:31.459Z,101151.41
2018-06-15T22:17:00.563Z,101156.83
2018-06-15T22:19:29.479Z,101154.64
2018-06-15T22:21:58.410Z,101152.42
2018-06-15T22:24:27.341Z,101153.17
2018-06-15T22:26:56.309Z,101156.20
2018-06-15T22:29:25.245Z,101155.65
2018-06-15T22:31:54.182Z,101153.46
2018-06-15T22:34:23.105Z,101160.77
2018-06-15T22:36:52.059Z,101157.48
2018-06-15T22:39:21.390Z,101162.06
2018-06-15T22:41:50.525Z,101154.16
2018-06-15T22:44:19.450Z,101151.70
2018-06-15T22:46:48.388Z,101162.31
2018-06-15T22:49:17.328Z,101162.55
2018-06-15T22:51:49.532Z,101163.55
2018-06-15T22:54:18.460Z,101160.42
2018-06-15T22:56:47.393Z,101157.73
2018-06-15T22:59:16.316Z,101159.66
2018-06-15T23:01:45.237Z,101159.05
2018-06-15T23:04:14.160Z,101161.77
2018-06-15T23:06:43.089Z,101156.01
2018-06-15T23:09:12.536Z,101155.51
2018-06-15T23:11:42.251Z,101160.40
2018-06-15T23:14:11.644Z,101156.56
2018-06-15T23:16:44.176Z,101155.20
2018-06-15T23:19:13.105Z,101159.80
2018-06-15T23:21:42.024Z,101150.78
2018-06-15T23:24:10.964Z,101162.27
2018-06-15T23:26:39.916Z,101174.74
2018-06-15T23:29:08.853Z,101163.24
2018-06-15T23:31:37.788Z,101165.84
2018-06-15T23:34:06.972Z,101167.69
2018-06-15T23:36:35.913Z,101162.20
2018-06-15T23:39:06.972Z,101163.70
2018-06-15T23:41:35.904Z,101161.36
2018-06-15T23:44:04.816Z,101168.16
2018-06-15T23:46:33.739Z,101164.31
2018-06-15T23:49:02.712Z,101169.20
2018-06-15T23:51:31.792Z,101166.13
2018-06-15T23:54:00.717Z,101170.80
2018-06-15T23:56:29.803Z,101170.39
2018-06-15T23:58:58.723Z,101168.39
